createdAt,value
2019-01-15T00:04:44.349Z,2.20
2019-01-15T00:10:21.270Z,2.02
2019-01-15T00:13:10.568Z,2.90
2019-01-15T00:18:46.587Z,3.05
2019-01-15T00:24:09.977Z,2.50
2019-01-15T00:26:38.917Z,2.10
2019-01-15T00:29:08.307Z,2.83
2019-01-15T00:31:57.606Z,2.17
2019-01-15T00:37:35.335Z,3.10
2019-01-15T00:40:06.387Z,2.60
2019-01-15T00:42:34.242Z,2.67
2019-01-15T00:45:02.554Z,2.62
2019-01-15T00:47:35.698Z,2.92
2019-01-15T00:50:03.868Z,2.42
2019-01-15T00:52:32.158Z,2.40
2019-01-15T00:55:22.535Z,3.22
2019-01-15T00:57:50.689Z,3.58
2019-01-15T01:00:19.625Z,2.60
2019-01-15T01:05:46.418Z,2.62
2019-01-15T01:10:53.833Z,2.70
2019-01-15T01:16:29.566Z,2.80
2019-01-15T01:19:07.459Z,2.90
2019-01-15T01:27:25.106Z,3.05
2019-01-15T01:33:06.489Z,2.98
2019-01-15T01:38:17.841Z,2.83
2019-01-15T01:40:46.198Z,2.70
2019-01-15T01:43:44.761Z,2.85
2019-01-15T01:45:44.323Z,3.17
2019-01-15T01:51:01.011Z,3.20
2019-01-15T01:53:28.869Z,3.55
2019-01-15T01:56:16.509Z,2.67
2019-01-15T01:58:44.336Z,3.77
2019-01-15T02:04:06.998Z,2.98
2019-01-15T02:09:14.354Z,3.77
2019-01-15T02:14:38.053Z,3.65
2019-01-15T02:20:02.631Z,3.42
2019-01-15T02:22:33.458Z,3.95
2019-01-15T02:25:20.288Z,3.35
2019-01-15T02:27:50.197Z,3.33
2019-01-15T02:33:44.304Z,3.22
2019-01-15T02:39:20.544Z,3.85
2019-01-15T02:44:37.171Z,3.95
2019-01-15T02:47:07.272Z,3.50
2019-01-15T02:52:14.311Z,3.62
2019-01-15T02:55:04.059Z,4.10
2019-01-15T03:03:53.304Z,3.67
2019-01-15T03:09:15.495Z,4.40
2019-01-15T03:17:26.543Z,4.50
2019-01-15T03:22:54.956Z,4.60
2019-01-15T03:25:24.872Z,4.58
2019-01-15T03:33:58.446Z,4.17
2019-01-15T03:36:26.328Z,5.33
2019-01-15T03:38:54.196Z,4.10
2019-01-15T03:44:36.351Z,5.37
2019-01-15T03:53:02.031Z,5.30
2019-01-15T03:55:48.997Z,5.85
2019-01-15T04:01:11.326Z,5.60
2019-01-15T04:03:44.986Z,6.78
2019-01-15T04:06:27.374Z,5.50
2019-01-15T04:08:47.011Z,6.20
2019-01-15T04:11:16.284Z,5.80
2019-01-15T04:13:51.490Z,6.10
2019-01-15T04:21:50.004Z,6.53
2019-01-15T04:27:14.426Z,6.47
2019-01-15T04:32:34.444Z,5.60
2019-01-15T04:35:21.361Z,5.80
2019-01-15T04:40:25.696Z,6.60
2019-01-15T04:43:19.884Z,6.08
2019-01-15T04:46:06.138Z,7.05
2019-01-15T04:48:36.827Z,7.25
2019-01-15T04:54:34.019Z,9.20
2019-01-15T05:00:00.651Z,7.35
2019-01-15T05:02:47.794Z,7.40
2019-01-15T05:05:34.218Z,7.92
2019-01-15T05:10:41.470Z,8.00
2019-01-15T05:13:09.523Z,7.15
2019-01-15T05:15:37.953Z,8.43
2019-01-15T05:18:05.942Z,7.80
2019-01-15T05:31:24.249Z,8.75
2019-01-15T05:36:53.653Z,8.20
2019-01-15T05:39:40.543Z,7.22
2019-01-15T05:48:24.249Z,8.13
2019-01-15T05:54:00.137Z,11.25
2019-01-15T05:56:30.199Z,9.90
2019-01-15T06:04:47.054Z,8.75
2019-01-15T06:07:15.201Z,10.30
2019-01-15T06:09:46.551Z,10.05
2019-01-15T06:15:07.481Z,11.10
2019-01-15T06:20:35.187Z,11.73
2019-01-15T06:25:59.574Z,11.03
2019-01-15T06:31:36.062Z,13.83
2019-01-15T06:34:04.736Z,13.05
2019-01-15T06:36:32.666Z,12.93
2019-01-15T06:39:01.850Z,12.28
2019-01-15T06:41:53.438Z,13.48
2019-01-15T06:47:37.038Z,14.87
2019-01-15T06:50:24.238Z,13.05
2019-01-15T06:55:25.379Z,15.10
2019-01-15T06:57:53.210Z,13.22
2019-01-15T07:00:22.244Z,14.07
2019-01-15T07:02:50.077Z,14.43
2019-01-15T07:05:18.065Z,15.35
2019-01-15T07:07:46.069Z,15.60
2019-01-15T07:10:15.585Z,14.43
2019-01-15T07:12:43.433Z,15.38
2019-01-15T07:15:11.250Z,15.00
2019-01-15T07:17:39.081Z,15.65
2019-01-15T07:20:14.324Z,15.98
2019-01-15T07:22:42.163Z,16.23
2019-01-15T07:25:10.878Z,17.05
2019-01-15T07:27:38.697Z,17.87
2019-01-15T07:30:08.691Z,16.60
2019-01-15T07:32:36.483Z,17.12
2019-01-15T07:35:04.329Z,17.10
2019-01-15T07:37:32.133Z,18.12
2019-01-15T07:39:59.966Z,15.95
2019-01-15T07:42:27.774Z,16.32
2019-01-15T07:44:55.619Z,19.55
2019-01-15T07:47:23.462Z,17.05
2019-01-15T07:49:51.441Z,17.30
2019-01-15T07:52:19.252Z,15.48
2019-01-15T07:54:47.066Z,14.93
2019-01-15T07:57:14.881Z,15.63
2019-01-15T07:59:42.745Z,15.05
2019-01-15T08:04:59.153Z,13.38
2019-01-15T08:07:26.975Z,14.58
2019-01-15T08:09:54.794Z,15.30
2019-01-15T08:12:22.618Z,15.38
2019-01-15T08:14:50.509Z,16.40
2019-01-15T08:17:18.353Z,14.53
2019-01-15T08:19:46.174Z,14.28
2019-01-15T08:22:14.016Z,14.90
2019-01-15T08:24:41.813Z,14.03
2019-01-15T08:27:09.749Z,16.23
2019-01-15T08:32:45.066Z,14.07
2019-01-15T08:38:20.366Z,14.15
2019-01-15T08:40:48.222Z,15.35
2019-01-15T08:43:16.045Z,14.75
2019-01-15T08:45:43.893Z,14.38
2019-01-15T08:48:15.467Z,14.75
2019-01-15T08:50:43.382Z,13.50
2019-01-15T08:56:00.595Z,13.48
2019-01-15T08:58:28.427Z,13.98
2019-01-15T09:00:56.413Z,15.15
2019-01-15T09:03:24.305Z,15.00
2019-01-15T09:05:52.185Z,14.85
2019-01-15T09:08:20.041Z,14.95
2019-01-15T09:10:47.920Z,14.85
2019-01-15T09:13:15.753Z,15.83
2019-01-15T09:15:43.587Z,14.90
2019-01-15T09:18:11.398Z,15.15
2019-01-15T09:20:39.255Z,15.45
2019-01-15T09:23:07.079Z,13.62
2019-01-15T09:25:34.920Z,16.05
2019-01-15T09:28:02.758Z,14.95
2019-01-15T09:30:30.577Z,15.05
2019-01-15T09:32:58.481Z,15.28
2019-01-15T09:35:26.317Z,14.90
2019-01-15T09:37:54.242Z,15.45
2019-01-15T09:40:22.927Z,15.20
2019-01-15T09:42:50.783Z,15.93
2019-01-15T09:45:19.526Z,16.35
2019-01-15T09:48:06.422Z,14.07
2019-01-15T09:50:34.262Z,14.83
2019-01-15T09:55:50.943Z,15.30
2019-01-15T09:58:18.746Z,13.85
2019-01-15T10:00:46.592Z,14.13
2019-01-15T10:03:14.417Z,15.13
2019-01-15T10:05:42.252Z,13.78
2019-01-15T10:08:10.074Z,13.05
2019-01-15T10:10:37.949Z,14.10
2019-01-15T10:13:05.769Z,12.82
2019-01-15T10:15:33.611Z,13.20
2019-01-15T10:18:01.522Z,13.10
2019-01-15T10:20:29.345Z,13.55
2019-01-15T10:22:57.169Z,11.90
2019-01-15T10:25:29.265Z,12.75
2019-01-15T10:27:58.269Z,13.18
2019-01-15T10:30:45.150Z,12.85
2019-01-15T10:33:32.074Z,11.50
2019-01-15T10:35:59.639Z,13.78
2019-01-15T10:38:28.665Z,13.43
2019-01-15T10:40:57.645Z,12.07
2019-01-15T10:46:21.403Z,12.70
2019-01-15T10:48:49.327Z,11.18
2019-01-15T10:51:17.129Z,13.28
2019-01-15T10:53:44.961Z,11.85
2019-01-15T10:56:12.773Z,11.70
2019-01-15T10:58:40.618Z,12.30
2019-01-15T11:01:08.450Z,12.95
2019-01-15T11:03:36.302Z,13.22
2019-01-15T11:09:11.650Z,12.30
2019-01-15T11:11:39.528Z,12.70
2019-01-15T11:16:43.057Z,12.30
2019-01-15T11:19:10.875Z,12.25
2019-01-15T11:21:38.718Z,12.30
2019-01-15T11:24:06.682Z,11.63
2019-01-15T11:26:34.530Z,12.73
2019-01-15T11:29:02.372Z,11.10
2019-01-15T11:31:30.197Z,11.12
2019-01-15T11:33:58.021Z,11.60
2019-01-15T11:36:25.909Z,11.45
2019-01-15T11:38:53.721Z,11.93
2019-01-15T11:41:21.547Z,11.25
2019-01-15T11:43:49.366Z,10.28
2019-01-15T11:46:17.230Z,11.90
2019-01-15T11:48:45.065Z,11.33
2019-01-15T11:51:12.917Z,10.98
2019-01-15T11:53:40.714Z,10.55
2019-01-15T11:56:08.891Z,10.40
2019-01-15T11:58:36.798Z,11.10
2019-01-15T12:01:09.554Z,11.38
2019-01-15T12:03:56.382Z,9.88
2019-01-15T12:06:43.219Z,10.28
2019-01-15T12:09:30.539Z,10.90
2019-01-15T12:12:17.399Z,10.60
2019-01-15T12:15:10.648Z,9.95
2019-01-15T12:17:41.941Z,11.30
2019-01-15T12:20:29.815Z,9.80
2019-01-15T12:23:16.675Z,11.05
2019-01-15T12:26:03.483Z,10.18
2019-01-15T12:28:50.312Z,10.72
2019-01-15T12:31:37.127Z,9.05
2019-01-15T12:34:23.961Z,9.65
2019-01-15T12:37:10.847Z,9.48
2019-01-15T12:39:57.797Z,10.82
2019-01-15T12:42:44.615Z,10.95
2019-01-15T12:48:39.701Z,9.38
2019-01-15T12:51:27.302Z,10.45
2019-01-15T12:54:14.187Z,10.55
2019-01-15T12:57:00.994Z,10.72
2019-01-15T12:59:47.875Z,10.78
2019-01-15T13:02:35.032Z,11.48
2019-01-15T13:05:21.872Z,12.18
2019-01-15T13:08:08.702Z,12.95
2019-01-15T13:10:55.561Z,13.58
2019-01-15T13:13:42.466Z,13.65
2019-01-15T13:16:20.806Z,13.28
2019-01-15T13:19:07.650Z,14.75
2019-01-15T13:21:54.486Z,11.90
2019-01-15T13:24:41.315Z,14.03
2019-01-15T13:27:28.155Z,13.88
2019-01-15T13:30:14.974Z,12.98
2019-01-15T13:33:01.806Z,12.73
2019-01-15T13:35:48.791Z,12.00
2019-01-15T13:38:35.602Z,12.93
2019-01-15T13:41:22.443Z,14.95
2019-01-15T13:44:09.246Z,12.18
2019-01-15T13:46:56.126Z,13.70
2019-01-15T13:49:42.993Z,11.75
2019-01-15T13:52:29.826Z,12.20
2019-01-15T13:55:07.855Z,12.93
2019-01-15T13:57:54.686Z,13.08
2019-01-15T14:00:41.499Z,12.80
2019-01-15T14:03:28.371Z,11.65
2019-01-15T14:06:15.244Z,12.68
2019-01-15T14:09:02.092Z,12.25
2019-01-15T14:11:48.962Z,12.63
2019-01-15T14:14:35.818Z,12.90
2019-01-15T14:17:22.675Z,11.75
2019-01-15T14:20:09.464Z,12.40
2019-01-15T14:22:56.335Z,12.10
2019-01-15T14:25:43.159Z,11.63
2019-01-15T14:28:30.000Z,12.05
2019-01-15T14:31:16.810Z,12.10
2019-01-15T14:34:03.689Z,11.38
2019-01-15T14:36:50.272Z,11.63
2019-01-15T14:39:37.338Z,12.65
2019-01-15T14:42:24.158Z,12.50
2019-01-15T14:45:24.156Z,12.03
2019-01-15T14:50:58.461Z,12.65
2019-01-15T14:53:45.265Z,13.90
2019-01-15T14:56:32.106Z,13.55
2019-01-15T14:59:18.963Z,13.15
2019-01-15T15:02:05.792Z,12.37
2019-01-15T15:04:52.654Z,12.68
2019-01-15T15:07:39.562Z,13.35
2019-01-15T15:10:26.752Z,12.13
2019-01-15T15:13:13.603Z,12.43
2019-01-15T15:16:03.778Z,12.20
2019-01-15T15:18:49.044Z,11.95
2019-01-15T15:21:35.910Z,12.18
2019-01-15T15:24:20.166Z,11.40
2019-01-15T15:27:07.004Z,11.48
2019-01-15T15:29:53.843Z,11.90
2019-01-15T15:32:31.278Z,11.05
2019-01-15T15:35:18.138Z,12.10
2019-01-15T15:38:04.983Z,11.50
2019-01-15T15:40:51.812Z,10.78
2019-01-15T15:43:38.684Z,10.68
2019-01-15T15:46:25.494Z,9.85
2019-01-15T15:49:12.471Z,10.85
2019-01-15T15:51:59.278Z,12.70
2019-01-15T15:54:46.233Z,10.68
2019-01-15T15:57:33.118Z,10.43
2019-01-15T16:00:19.954Z,10.20
2019-01-15T16:03:06.789Z,10.25
2019-01-15T16:05:53.631Z,10.10
2019-01-15T16:08:40.468Z,9.95
2019-01-15T16:11:27.331Z,12.30
2019-01-15T16:14:14.183Z,11.12
2019-01-15T16:17:01.014Z,10.58
2019-01-15T16:19:47.867Z,9.90
2019-01-15T16:22:34.736Z,10.08
2019-01-15T16:25:21.559Z,11.10
2019-01-15T16:28:08.435Z,10.53
2019-01-15T16:30:55.266Z,9.05
2019-01-15T16:33:42.078Z,9.95
2019-01-15T16:36:28.955Z,9.48
2019-01-15T16:39:15.784Z,8.68
2019-01-15T16:42:02.655Z,8.88
2019-01-15T16:44:49.479Z,7.87
2019-01-15T16:47:36.329Z,9.38
2019-01-15T16:50:23.782Z,8.90
2019-01-15T16:53:10.655Z,7.85
2019-01-15T16:55:50.087Z,8.63
2019-01-15T16:58:36.886Z,9.40
2019-01-15T17:01:23.720Z,10.70
2019-01-15T17:04:10.538Z,8.73
2019-01-15T17:06:57.366Z,9.30
2019-01-15T17:09:44.202Z,8.03
2019-01-15T17:12:31.071Z,8.90
2019-01-15T17:15:17.915Z,9.78
2019-01-15T17:18:04.750Z,9.98
2019-01-15T17:20:39.731Z,9.05
2019-01-15T17:23:15.629Z,8.90
2019-01-15T17:25:51.961Z,9.60
2019-01-15T17:28:38.877Z,8.88
2019-01-15T17:31:17.433Z,10.00
2019-01-15T17:34:04.282Z,8.85
2019-01-15T17:36:51.156Z,10.00
2019-01-15T17:39:38.065Z,9.78
2019-01-15T17:42:24.922Z,10.50
2019-01-15T17:45:11.867Z,10.40
2019-01-15T17:47:58.944Z,9.15
2019-01-15T17:50:48.107Z,10.05
2019-01-15T17:53:35.050Z,11.28
2019-01-15T17:56:21.924Z,9.75
2019-01-15T17:59:08.835Z,10.10
2019-01-15T18:01:55.666Z,8.95
2019-01-15T18:04:42.586Z,10.25
2019-01-15T18:07:19.734Z,10.63
2019-01-15T18:09:57.369Z,11.70
2019-01-15T18:12:44.296Z,14.53
2019-01-15T18:15:31.225Z,9.83
2019-01-15T18:18:14.686Z,9.70
2019-01-15T18:21:22.247Z,10.58
2019-01-15T18:27:20.573Z,9.45
2019-01-15T18:36:08.832Z,10.08
2019-01-15T18:39:13.578Z,11.43
2019-01-15T18:42:04.528Z,10.08
2019-01-15T18:44:53.679Z,9.98
2019-01-15T18:47:42.931Z,9.40
2019-01-15T18:50:29.906Z,10.85
2019-01-15T18:53:17.414Z,10.28
2019-01-15T18:56:20.240Z,10.68
2019-01-15T18:58:57.453Z,9.75
2019-01-15T19:01:46.981Z,11.00
2019-01-15T19:04:53.950Z,10.45
2019-01-15T19:07:42.041Z,11.50
2019-01-15T19:10:29.095Z,11.80
2019-01-15T19:13:35.584Z,11.35
2019-01-15T19:16:23.452Z,10.90
2019-01-15T19:22:16.021Z,11.53
2019-01-15T19:25:22.057Z,11.20
2019-01-15T19:31:09.951Z,11.43
2019-01-15T19:33:56.928Z,12.78
2019-01-15T19:36:46.114Z,12.15
2019-01-15T19:39:33.761Z,12.05
2019-01-15T19:42:20.628Z,13.20
2019-01-15T19:45:09.088Z,12.58
2019-01-15T19:48:15.381Z,13.35
2019-01-15T19:54:34.998Z,12.05
2019-01-15T20:03:29.806Z,13.00
2019-01-15T20:06:39.056Z,12.45
2019-01-15T20:15:04.281Z,14.80
2019-01-15T20:20:59.998Z,13.78
2019-01-15T20:26:44.004Z,15.45
2019-01-15T20:32:42.794Z,14.05
2019-01-15T20:35:30.303Z,14.25
2019-01-15T20:38:18.689Z,15.80
2019-01-15T20:41:05.792Z,16.60
2019-01-15T20:43:53.487Z,14.53
2019-01-15T20:46:40.610Z,15.85
2019-01-15T20:49:47.469Z,16.25
2019-01-15T20:55:29.405Z,14.00
2019-01-15T20:58:16.948Z,15.23
2019-01-15T21:01:04.381Z,14.30
2019-01-15T21:03:51.759Z,13.70
2019-01-15T21:06:38.799Z,14.25
2019-01-15T21:09:29.867Z,14.07
2019-01-15T21:12:17.841Z,13.65
2019-01-15T21:15:04.833Z,13.08
2019-01-15T21:17:54.458Z,12.47
2019-01-15T21:20:43.102Z,11.28
2019-01-15T21:23:30.974Z,11.83
2019-01-15T21:26:20.039Z,11.97
2019-01-15T21:29:07.401Z,11.68
2019-01-15T21:31:54.625Z,13.25
2019-01-15T21:34:44.360Z,11.93
2019-01-15T21:37:31.993Z,11.35
2019-01-15T21:40:14.070Z,10.90
2019-01-15T21:43:01.075Z,12.70
2019-01-15T21:45:48.118Z,10.65
2019-01-15T21:48:35.108Z,10.88
2019-01-15T21:51:22.718Z,11.38
2019-01-15T21:54:09.610Z,11.70
2019-01-15T22:00:11.555Z,11.70
2019-01-15T22:09:11.672Z,10.55
2019-01-15T22:11:58.599Z,10.80
2019-01-15T22:14:45.920Z,10.53
2019-01-15T22:20:28.626Z,12.47
2019-01-15T22:23:37.572Z,11.43
2019-01-15T22:26:25.939Z,9.55
2019-01-15T22:29:13.835Z,11.30
2019-01-15T22:31:52.946Z,12.10
2019-01-15T22:34:39.870Z,11.00
2019-01-15T22:37:29.097Z,12.33
2019-01-15T22:43:16.192Z,11.85
2019-01-15T22:46:23.576Z,12.13
2019-01-15T22:49:12.133Z,11.80
2019-01-15T22:52:01.644Z,12.55
2019-01-15T22:54:49.482Z,12.75
2019-01-15T22:57:37.437Z,11.00
2019-01-15T23:06:42.495Z,10.63
2019-01-15T23:09:48.418Z,12.23
2019-01-15T23:15:38.114Z,10.88
2019-01-15T23:21:45.713Z,11.12
2019-01-15T23:27:23.150Z,9.65
2019-01-15T23:30:13.270Z,10.20
2019-01-15T23:33:00.280Z,9.70
2019-01-15T23:38:47.871Z,9.55
2019-01-15T23:44:19.850Z,8.63
2019-01-15T23:47:25.832Z,8.60
2019-01-15T23:50:31.794Z,8.85
2019-01-15T23:53:18.773Z,8.70
2019-01-15T23:56:24.766Z,8.25
2019-01-15T23:59:12.943Z,9.05
